Time;durP1;ratioP1;P1;durP2;ratioP2;P2;SDS_P1;SDS_P2;PMS_P1;PMS_P2;Temp;Humidity;BMP_temperature;BMP_pressure;BME280_temperature;BME280_humidity;BME280_pressure;Samples;Min_cycle;Max_cycle;Signal;HPM_P1;HPM_P2
2021/12/28 00:00:31;;;;;;;45.60;27.32;;;;;;;-1.91;68.49;93923.42;1753364;81;21173;-59
2021/12/28 00:03:00;;;;;;;41.45;21.20;;;;;;;-1.94;68.55;93921.47;1728859;81;21399;-59
2021/12/28 00:05:26;;;;;;;39.55;22.07;;;;;;;-1.88;68.91;93922.63;1751076;81;20947;-58
2021/12/28 00:07:53;;;;;;;47.67;22.73;;;;;;;-1.78;68.80;93924.52;1721080;81;21009;-59
2021/12/28 00:10:20;;;;;;;43.58;22.30;;;;;;;-1.71;68.58;93927.22;1748714;81;21070;-59
2021/12/28 00:12:50;;;;;;;29.92;17.12;;;;;;;-1.64;68.22;93931.23;1742784;81;21463;-58
2021/12/28 00:17:59;;;;;;;27.73;19.27;;;;;;;-1.69;68.05;93929.69;1747585;81;20950;-58
2021/12/28 00:20:39;;;;;;;25.57;17.95;;;;;;;-1.73;67.86;93930.88;1744641;81;21084;-57
2021/12/28 00:23:10;;;;;;;33.08;23.07;;;;;;;-1.77;67.90;93929.53;1739795;81;21057;-58
2021/12/28 00:25:37;;;;;;;29.92;21.87;;;;;;;-1.85;68.00;93926.46;1746509;81;21137;-58
2021/12/28 00:28:04;;;;;;;30.80;21.75;;;;;;;-1.86;68.09;93931.09;1741768;81;21025;-56
2021/12/28 00:30:30;;;;;;;32.05;20.00;;;;;;;-1.87;68.32;93928.22;1749709;81;21057;-58
2021/12/28 00:32:58;;;;;;;29.90;19.42;;;;;;;-1.84;68.12;93931.48;1716035;81;20982;-57
2021/12/28 00:35:30;;;;;;;29.70;19.95;;;;;;;-1.86;67.97;93931.66;1745787;81;21069;-58
2021/12/28 00:37:56;;;;;;;29.95;18.25;;;;;;;-1.88;68.14;93928.59;1749575;81;21153;-57
2021/12/28 00:40:26;;;;;;;27.95;18.23;;;;;;;-1.88;68.20;93929.38;1737119;81;21579;-58
2021/12/28 00:42:53;;;;;;;28.87;18.42;;;;;;;-1.85;68.14;93929.94;1738602;81;21522;-58
2021/12/28 00:45:20;;;;;;;30.70;18.98;;;;;;;-1.87;68.07;93924.17;1750372;81;20930;-57
2021/12/28 00:47:48;;;;;;;33.10;20.02;;;;;;;-1.85;68.01;93931.28;1753315;81;20963;-57
2021/12/28 00:50:16;;;;;;;29.75;19.12;;;;;;;-1.86;68.05;93928.41;1737591;81;21165;-58
2021/12/28 00:52:45;;;;;;;29.48;17.52;;;;;;;-1.75;68.26;93930.48;1740157;81;21014;-59
2021/12/28 00:55:14;;;;;;;26.30;17.27;;;;;;;-1.68;67.75;93929.88;1749484;81;21006;-58
2021/12/28 00:57:41;;;;;;;25.23;17.73;;;;;;;-1.72;67.63;93926.44;1747797;81;21075;-59
2021/12/28 01:00:12;;;;;;;25.10;16.67;;;;;;;-1.71;67.46;93923.17;1742961;81;21431;-59
2021/12/28 01:02:38;;;;;;;28.10;17.75;;;;;;;-1.75;67.62;93927.78;1747318;81;21135;-58
2021/12/28 01:05:06;;;;;;;25.88;17.37;;;;;;;-1.63;67.75;93926.02;1752260;81;21497;-58
2021/12/28 01:07:34;;;;;;;20.82;14.33;;;;;;;-1.55;67.03;93926.18;1743939;81;21061;-57
2021/12/28 01:10:00;;;;;;;25.00;17.27;;;;;;;-1.60;66.64;93927.94;1749986;81;21014;-58
2021/12/28 01:12:27;;;;;;;25.85;17.17;;;;;;;-1.73;66.99;93927.59;1742360;81;21059;-58
2021/12/28 01:14:54;;;;;;;25.70;17.98;;;;;;;-1.74;66.89;93929.31;1753329;81;21809;-58
2021/12/28 01:17:24;;;;;;;28.65;19.20;;;;;;;-1.70;66.79;93928.75;1747530;81;20998;-58
2021/12/28 01:19:50;;;;;;;24.85;16.32;;;;;;;-1.76;66.90;93928.38;1750477;81;20998;-59
2021/12/28 01:22:19;;;;;;;30.23;17.67;;;;;;;-1.72;66.87;93927.78;1725960;81;21009;-59
2021/12/28 01:24:47;;;;;;;27.15;17.82;;;;;;;-1.83;66.46;93932.23;1753320;81;21046;-58
2021/12/28 01:27:14;;;;;;;40.38;22.62;;;;;;;-1.93;66.72;93929.75;1746963;81;21994;-59
2021/12/28 01:29:41;;;;;;;44.08;21.15;;;;;;;-2.02;66.72;93924.56;1750381;81;20950;-59
2021/12/28 01:32:13;;;;;;;49.58;26.90;;;;;;;-2.10;66.87;93920.36;1753284;81;20911;-59
2021/12/28 01:34:40;;;;;;;51.15;29.23;;;;;;;-2.13;67.23;93927.28;1722037;81;20975;-59
2021/12/28 01:37:08;;;;;;;46.60;27.58;;;;;;;-2.06;67.37;93920.55;1741457;81;20939;-57
2021/12/28 01:39:35;;;;;;;56.18;32.30;;;;;;;-1.93;67.62;93923.60;1743684;81;21153;-58
2021/12/28 01:42:06;;;;;;;59.23;34.40;;;;;;;-1.76;66.98;93924.89;1742958;81;21592;-58
2021/12/28 01:44:34;;;;;;;70.70;38.60;;;;;;;-1.74;66.87;93927.41;1753309;81;20978;-58
2021/12/28 01:47:00;;;;;;;50.17;31.48;;;;;;;-1.65;66.84;93925.64;1753505;81;21006;-58
2021/12/28 01:49:29;;;;;;;40.70;25.90;;;;;;;-1.60;66.33;93921.20;1743820;81;20998;-57
2021/12/28 01:51:56;;;;;;;45.60;29.60;;;;;;;-1.66;66.08;93917.38;1747453;81;21926;-57
2021/12/28 01:54:22;;;;;;;39.92;25.48;;;;;;;-1.71;66.36;93917.78;1730162;81;21006;-58
2021/12/28 01:56:49;;;;;;;47.80;27.73;;;;;;;-1.64;66.26;93927.19;1742217;81;20959;-58
2021/12/28 01:59:20;;;;;;;41.08;26.50;;;;;;;-1.69;66.18;93917.56;1753589;81;21438;-58
2021/12/28 02:01:47;;;;;;;43.48;26.52;;;;;;;-1.64;66.14;93919.09;1741443;81;20955;-57
2021/12/28 02:04:21;;;;;;;38.25;23.32;;;;;;;-1.63;66.16;93923.33;1742703;81;21061;-57
2021/12/28 02:06:49;;;;;;;41.05;24.25;;;;;;;-1.60;65.88;93918.50;1749278;81;21006;-58
2021/12/28 02:09:16;;;;;;;41.77;24.43;;;;;;;-1.66;65.66;93925.46;1753240;81;20934;-59
2021/12/28 02:11:44;;;;;;;46.05;27.73;;;;;;;-1.78;65.59;93917.78;1753225;81;21042;-58
2021/12/28 02:14:11;;;;;;;40.48;24.27;;;;;;;-1.85;66.27;93919.72;1726038;81;20966;-58
2021/12/28 02:16:40;;;;;;;49.83;29.25;;;;;;;-1.80;66.00;93922.05;1747428;81;21142;-57
2021/12/28 02:19:08;;;;;;;57.20;31.95;;;;;;;-1.82;65.94;93929.16;1742067;81;20995;-57
2021/12/28 02:21:35;;;;;;;45.43;27.55;;;;;;;-1.79;65.91;93920.29;1753281;81;21018;-58
2021/12/28 02:24:07;;;;;;;42.10;27.02;;;;;;;-1.76;65.92;93919.50;1753239;81;21056;-57
2021/12/28 02:26:37;;;;;;;48.68;25.82;;;;;;;-1.73;65.67;93914.70;1749227;81;21054;-58
2021/12/28 02:29:05;;;;;;;32.35;21.50;;;;;;;-1.72;65.82;93920.29;1752684;81;21175;-57
2021/12/28 02:31:32;;;;;;;34.67;20.55;;;;;;;-1.70;65.39;93920.07;1750454;81;21537;-57
2021/12/28 02:34:02;;;;;;;29.57;19.48;;;;;;;-1.76;65.30;93920.29;1743909;81;20996;-58
2021/12/28 02:36:29;;;;;;;31.02;19.55;;;;;;;-1.85;65.37;93921.07;1751312;81;20974;-59
2021/12/28 02:38:56;;;;;;;32.33;19.50;;;;;;;-1.99;65.53;93921.88;1749841;81;21002;-57
2021/12/28 02:41:24;;;;;;;44.30;25.27;;;;;;;-2.03;65.83;93913.04;1749483;81;21087;-58
2021/12/28 02:43:51;;;;;;;58.63;29.00;;;;;;;-2.06;65.97;93907.08;1749637;81;21140;-57
2021/12/28 02:46:17;;;;;;;62.30;32.67;;;;;;;-2.12;66.13;93901.13;1728058;81;20947;-59
2021/12/28 02:48:44;;;;;;;48.83;28.90;;;;;;;-2.10;66.56;93900.16;1740256;81;21481;-58
2021/12/28 02:51:15;;;;;;;47.45;27.30;;;;;;;-1.97;66.75;93902.05;1743220;81;21077;-59
2021/12/28 02:53:43;;;;;;;52.30;29.25;;;;;;;-1.83;66.49;93897.19;1753167;81;21162;-58
2021/12/28 02:56:14;;;;;;;71.60;35.55;;;;;;;-1.72;66.34;93894.09;1747379;81;20966;-57
2021/12/28 02:58:44;;;;;;;56.85;29.12;;;;;;;-1.60;66.13;93898.28;1746799;81;21497;-58
2021/12/28 03:01:23;;;;;;;54.00;28.30;;;;;;;-1.51;65.64;93898.05;1761880;81;20978;-58
2021/12/28 03:03:53;;;;;;;43.48;26.27;;;;;;;-1.49;65.74;93896.32;1755849;81;20958;-58
2021/12/28 03:06:22;;;;;;;37.83;22.77;;;;;;;-1.41;65.60;93897.81;1742369;81;22749;-58
2021/12/28 03:08:53;;;;;;;43.87;24.92;;;;;;;-1.36;64.97;93887.39;1751271;81;21442;-58
2021/12/28 03:11:26;;;;;;;39.18;23.52;;;;;;;-1.39;65.08;93890.09;1749092;81;21532;-58
2021/12/28 03:13:56;;;;;;;180.63;77.03;;;;;;;-1.37;64.71;93894.52;1742988;81;21038;-59
2021/12/28 03:16:26;;;;;;;131.00;58.17;;;;;;;-1.47;64.87;93894.00;1753363;81;21029;-58
2021/12/28 03:18:53;;;;;;;107.90;51.55;;;;;;;-1.47;64.97;93894.75;1741846;81;21160;-59
2021/12/28 03:21:21;;;;;;;60.58;32.67;;;;;;;-1.46;65.11;93902.27;1752127;81;21014;-58
2021/12/28 03:23:48;;;;;;;52.43;33.28;;;;;;;-1.46;64.99;93893.62;1747792;81;21443;-57
2021/12/28 03:26:15;;;;;;;55.10;30.75;;;;;;;-1.49;65.11;93894.97;1744375;81;21132;-58
2021/12/28 03:28:43;;;;;;;44.27;28.55;;;;;;;-1.46;65.32;93899.58;1755700;80;21014;-60
2021/12/28 03:31:13;;;;;;;42.00;27.67;;;;;;;-1.35;65.41;93901.06;1725720;81;21749;-56
2021/12/28 03:33:43;;;;;;;44.77;26.85;;;;;;;-1.16;65.20;93894.44;1745247;81;21691;-58
2021/12/28 03:36:09;;;;;;;53.80;30.75;;;;;;;-1.05;64.57;93895.13;1756435;81;20982;-59
2021/12/28 03:38:36;;;;;;;77.78;40.12;;;;;;;-1.11;64.25;93894.02;1747808;81;21006;-59
2021/12/28 03:41:07;;;;;;;54.88;31.62;;;;;;;-1.11;64.61;93896.12;1753219;81;20998;-59
2021/12/28 03:43:32;;;;;;;67.55;34.30;;;;;;;-1.09;64.35;93898.44;1730528;81;21521;-58
2021/12/28 03:46:00;;;;;;;88.67;42.55;;;;;;;-1.11;64.19;93900.16;1753511;81;20931;-57
2021/12/28 03:48:26;;;;;;;89.95;40.23;;;;;;;-1.23;64.34;93896.59;1753537;81;21081;-59
2021/12/28 03:50:53;;;;;;;62.98;31.85;;;;;;;-1.27;64.50;93901.80;1712872;81;21041;-58
2021/12/28 03:53:20;;;;;;;101.30;50.00;;;;;;;-1.27;64.60;93899.89;1739289;81;20947;-58
2021/12/28 03:55:46;;;;;;;118.00;56.68;;;;;;;-1.34;64.57;93902.60;1752116;81;21486;-58
2021/12/28 03:58:17;;;;;;;83.97;44.25;;;;;;;-1.40;64.80;93912.27;1715689;81;21042;-58
2021/12/28 04:00:46;;;;;;;63.87;36.30;;;;;;;-1.48;64.84;93908.64;1751579;81;20978;-58
2021/12/28 04:03:15;;;;;;;63.92;35.98;;;;;;;-1.53;64.97;93913.09;1742776;81;21026;-57
2021/12/28 04:05:46;;;;;;;70.15;38.13;;;;;;;-1.60;65.16;93915.80;1720030;82;20958;-59
2021/12/28 04:08:19;;;;;;;53.67;31.87;;;;;;;-1.63;65.62;93915.23;1715675;81;21967;-58
2021/12/28 04:10:54;;;;;;;61.98;36.65;;;;;;;-1.64;65.63;93909.66;1724473;81;21100;-57
2021/12/28 04:13:20;;;;;;;71.40;40.00;;;;;;;-1.66;65.94;93920.06;1752908;81;21061;-59
2021/12/28 04:15:47;;;;;;;64.35;37.08;;;;;;;-1.66;65.84;93909.28;1740110;81;20962;-58
2021/12/28 04:18:15;;;;;;;77.27;41.13;;;;;;;-1.62;66.42;93910.03;1743724;81;21010;-58
2021/12/28 04:20:42;;;;;;;66.67;38.25;;;;;;;-1.45;66.33;93902.47;1749459;81;21989;-59
2021/12/28 04:23:08;;;;;;;60.55;34.13;;;;;;;-1.32;65.81;93907.02;1748460;81;21006;-58
2021/12/28 04:25:35;;;;;;;64.20;34.58;;;;;;;-1.26;65.71;93901.42;1710178;81;21066;-58
2021/12/28 04:28:03;;;;;;;66.40;36.30;;;;;;;-1.13;65.56;93904.44;1755852;81;21101;-58
2021/12/28 04:30:30;;;;;;;44.18;27.07;;;;;;;-1.10;65.11;93909.05;1736391;81;20937;-59
2021/12/28 04:32:57;;;;;;;64.12;34.25;;;;;;;-1.17;64.98;93903.70;1750223;81;21146;-59
2021/12/28 04:35:26;;;;;;;71.90;40.00;;;;;;;-1.28;64.97;93897.58;1749500;81;21014;-57
2021/12/28 04:37:56;;;;;;;96.63;51.18;;;;;;;-1.37;65.33;93900.70;1747618;81;20992;-58
2021/12/28 04:40:22;;;;;;;149.65;72.32;;;;;;;-1.38;65.31;93902.42;1740309;81;21017;-61
2021/12/28 04:42:51;;;;;;;114.05;58.70;;;;;;;-1.39;65.39;93907.62;1744111;81;21011;-59
2021/12/28 04:45:18;;;;;;;73.02;40.43;;;;;;;-1.47;65.42;93904.78;1742354;81;21149;-58
2021/12/28 04:47:45;;;;;;;74.77;39.48;;;;;;;-1.57;65.53;93909.06;1752608;81;21096;-58
2021/12/28 04:50:12;;;;;;;100.18;50.17;;;;;;;-1.65;65.83;93912.17;1741622;81;20963;-58
2021/12/28 04:52:39;;;;;;;165.97;78.65;;;;;;;-1.66;66.21;93903.89;1751161;81;21010;-57
2021/12/28 04:55:12;;;;;;;108.27;54.77;;;;;;;-1.66;66.57;93901.95;1730479;81;21498;-58
2021/12/28 04:57:39;;;;;;;68.05;38.05;;;;;;;-1.59;66.27;93906.55;1746045;81;21863;-57
2021/12/28 05:00:11;;;;;;;61.50;32.95;;;;;;;-1.62;66.20;93904.64;1716955;81;21533;-57
2021/12/28 05:02:38;;;;;;;84.60;45.40;;;;;;;-1.59;66.78;93903.86;1749641;81;21505;-58
2021/12/28 05:05:05;;;;;;;73.62;42.95;;;;;;;-1.46;66.48;93903.63;1747240;81;20995;-58
2021/12/28 05:07:34;;;;;;;66.05;39.45;;;;;;;-1.33;66.58;93902.03;1753228;81;21560;-58
2021/12/28 05:10:01;;;;;;;79.53;44.67;;;;;;;-1.18;66.23;93898.11;1753185;81;21308;-58
2021/12/28 05:12:28;;;;;;;92.95;46.48;;;;;;;-1.14;65.88;93894.21;1753035;81;21402;-58
2021/12/28 05:14:59;;;;;;;94.03;48.30;;;;;;;-1.06;65.78;93890.33;1747668;81;20938;-56
2021/12/28 05:17:27;;;;;;;77.17;42.35;;;;;;;-1.07;65.54;93886.66;1750836;81;21425;-56
2021/12/28 05:19:54;;;;;;;97.97;47.03;;;;;;;-1.15;65.53;93879.78;1740947;81;20967;-56
2021/12/28 05:22:23;;;;;;;49.98;28.90;;;;;;;-1.32;65.25;93883.34;1743836;81;21037;-56
2021/12/28 05:24:49;;;;;;;46.08;26.60;;;;;;;-1.50;65.67;93892.84;1741949;81;21419;-56
2021/12/28 05:27:16;;;;;;;50.88;29.95;;;;;;;-1.64;65.83;93896.19;1744943;81;21002;-56
2021/12/28 05:29:48;;;;;;;75.42;39.55;;;;;;;-1.79;66.37;93895.28;1742428;81;21477;-58
2021/12/28 05:32:16;;;;;;;99.07;52.40;;;;;;;-1.79;66.56;93888.55;1748306;81;21057;-56
2021/12/28 05:34:43;;;;;;;78.33;39.10;;;;;;;-1.76;66.54;93891.20;1738132;81;21145;-58
2021/12/28 05:37:11;;;;;;;75.67;36.93;;;;;;;-1.77;66.54;93887.76;1743755;81;20953;-59
2021/12/28 05:39:38;;;;;;;43.95;28.17;;;;;;;-1.73;66.38;93902.58;1746525;81;20989;-58
2021/12/28 05:42:07;;;;;;;44.35;27.05;;;;;;;-1.81;66.15;93904.34;1745897;81;21481;-56
2021/12/28 05:44:38;;;;;;;44.42;28.45;;;;;;;-1.94;66.23;93905.90;1742192;81;21006;-57
2021/12/28 05:47:05;;;;;;;39.50;25.23;;;;;;;-2.08;66.45;93904.58;1749106;81;21149;-57
2021/12/28 05:49:33;;;;;;;35.50;23.38;;;;;;;-2.20;66.68;93904.41;1743991;81;21121;-56
2021/12/28 05:52:00;;;;;;;45.17;25.85;;;;;;;-2.18;66.92;93903.44;1743712;81;20951;-57
2021/12/28 05:54:26;;;;;;;37.85;25.23;;;;;;;-2.19;66.70;93907.85;1753545;81;21469;-54
2021/12/28 05:56:53;;;;;;;38.45;25.62;;;;;;;-2.20;66.63;93904.97;1753266;81;21497;-55
2021/12/28 05:59:20;;;;;;;46.92;28.92;;;;;;;-2.25;66.57;93910.75;1742420;81;21154;-55
2021/12/28 06:01:46;;;;;;;51.37;31.45;;;;;;;-2.28;66.89;93908.27;1743918;81;21110;-56
2021/12/28 06:04:14;;;;;;;58.10;35.23;;;;;;;-2.22;67.05;93917.48;1743164;81;21010;-54
2021/12/28 06:06:40;;;;;;;79.30;43.00;;;;;;;-2.10;66.82;93919.02;1747980;81;21435;-55
2021/12/28 06:09:07;;;;;;;57.88;35.33;;;;;;;-2.03;66.47;93920.34;1749285;81;21046;-55
2021/12/28 06:11:38;;;;;;;66.80;38.13;;;;;;;-2.07;65.97;93924.97;1747496;81;21124;-55
2021/12/28 06:14:04;;;;;;;113.60;59.42;;;;;;;-2.18;65.55;93926.92;1741577;81;21017;-54
2021/12/28 06:16:34;;;;;;;71.62;43.30;;;;;;;-2.33;65.39;93932.88;1743851;82;20979;-54
2021/12/28 06:19:07;;;;;;;71.57;41.33;;;;;;;-2.53;65.60;93937.11;1741668;81;20975;-55
2021/12/28 06:21:36;;;;;;;248.72;125.10;;;;;;;-2.69;65.63;93938.65;1752119;81;21077;-55
2021/12/28 06:24:07;;;;;;;162.27;95.85;;;;;;;-2.83;65.88;93951.48;1747911;79;21196;-54
2021/12/28 06:26:35;;;;;;;151.57;83.65;;;;;;;-2.89;66.28;93957.06;1746933;79;21497;-53
2021/12/28 06:29:08;;;;;;;112.62;64.37;;;;;;;-2.90;66.18;93947.45;1749009;79;21440;-57
2021/12/28 06:31:35;;;;;;;98.17;53.75;;;;;;;-2.92;66.31;93948.41;1758554;80;20974;-55
2021/12/28 06:34:03;;;;;;;77.97;43.33;;;;;;;-2.88;66.38;93958.59;1750450;80;21071;-56
2021/12/28 06:36:30;;;;;;;87.72;46.25;;;;;;;-2.81;66.49;93953.25;1725127;79;21282;-55
2021/12/28 06:38:57;;;;;;;93.65;48.20;;;;;;;-2.71;66.54;93955.16;1722500;79;21075;-56
2021/12/28 06:41:24;;;;;;;101.82;50.50;;;;;;;-2.55;66.35;93959.61;1757827;79;21084;-57
2021/12/28 06:43:50;;;;;;;91.35;49.38;;;;;;;-2.44;66.01;93965.78;1717389;79;21068;-55
2021/12/28 06:46:19;;;;;;;61.90;34.60;;;;;;;-2.37;65.90;93973.85;1752549;80;21005;-56
2021/12/28 06:48:46;;;;;;;59.00;36.50;;;;;;;-2.26;65.74;93968.47;1757756;79;21461;-54
2021/12/28 06:51:16;;;;;;;104.60;58.00;;;;;;;-2.37;65.26;93975.20;1762759;79;21467;-55
2021/12/28 06:53:47;;;;;;;121.67;64.58;;;;;;;-2.44;65.47;93971.73;1724319;80;21129;-55
2021/12/28 06:56:16;;;;;;;145.55;75.35;;;;;;;-2.50;65.70;93973.27;1758640;79;21059;-58
2021/12/28 06:58:47;;;;;;;156.78;79.22;;;;;;;-2.49;65.91;93970.18;1725901;80;21080;-57
2021/12/28 07:01:13;;;;;;;152.00;75.75;;;;;;;-2.43;66.19;93972.70;1752357;79;21173;-58
2021/12/28 07:03:40;;;;;;;162.50;80.95;;;;;;;-2.45;65.94;93972.32;1759106;79;22591;-56
2021/12/28 07:06:07;;;;;;;151.42;77.27;;;;;;;-2.53;66.11;93980.19;1754144;79;21017;-57
2021/12/28 07:08:35;;;;;;;155.80;79.90;;;;;;;-2.53;66.31;93964.03;1771008;79;21063;-58
2021/12/28 07:11:01;;;;;;;184.85;88.55;;;;;;;-2.56;66.43;93968.84;1759972;79;20971;-56
2021/12/28 07:13:28;;;;;;;203.25;100.70;;;;;;;-2.63;66.57;93975.57;1742237;79;21072;-56
2021/12/28 07:15:56;;;;;;;209.98;103.95;;;;;;;-2.75;66.85;93971.89;1756101;79;21030;-59
2021/12/28 07:18:22;;;;;;;247.63;118.55;;;;;;;-2.71;67.27;93971.31;1758466;79;21088;-56
2021/12/28 07:20:49;;;;;;;250.65;125.60;;;;;;;-2.63;66.98;93974.79;1740937;80;21009;-57
2021/12/28 07:23:16;;;;;;;265.70;132.47;;;;;;;-2.59;67.00;93978.25;1748586;80;21925;-57
2021/12/28 07:25:43;;;;;;;257.05;124.38;;;;;;;-2.54;67.43;93969.22;1735910;80;21141;-59
2021/12/28 07:28:10;;;;;;;259.73;128.32;;;;;;;-2.34;67.32;93973.08;1747539;80;21076;-53
2021/12/28 07:30:40;;;;;;;277.50;136.77;;;;;;;-2.10;66.72;93979.63;1756586;80;21011;-59
2021/12/28 07:33:06;;;;;;;296.82;140.75;;;;;;;-2.07;66.06;93978.28;1756216;79;21489;-59
2021/12/28 07:35:37;;;;;;;286.40;142.55;;;;;;;-2.09;65.73;93979.81;1752454;79;21576;-56
2021/12/28 07:38:06;;;;;;;334.75;174.60;;;;;;;-2.25;65.63;93982.91;1755947;78;21120;-55
2021/12/28 07:40:33;;;;;;;290.62;143.68;;;;;;;-2.38;65.89;93984.99;1754019;79;21083;-56
2021/12/28 07:42:59;;;;;;;270.45;142.50;;;;;;;-2.48;66.30;93979.80;1756142;80;22448;-59
2021/12/28 07:45:26;;;;;;;314.57;158.63;;;;;;;-2.50;66.45;93986.14;1738223;80;21045;-57
2021/12/28 07:47:56;;;;;;;290.85;150.35;;;;;;;-2.51;66.52;93989.98;1762933;79;21052;-56
2021/12/28 07:50:23;;;;;;;300.80;157.27;;;;;;;-2.52;66.45;93989.04;1760450;79;21147;-57
2021/12/28 07:52:52;;;;;;;266.33;141.68;;;;;;;-2.47;66.65;93992.69;1762850;78;21062;-57
2021/12/28 07:55:18;;;;;;;257.95;134.93;;;;;;;-2.29;66.79;93989.44;1751950;78;21056;-56
2021/12/28 07:57:45;;;;;;;259.05;133.63;;;;;;;-1.98;66.12;93995.41;1729486;80;21009;-62
2021/12/28 08:00:15;;;;;;;225.03;117.30;;;;;;;-1.77;65.59;93994.78;1681756;81;21129;-59
2021/12/28 08:02:43;;;;;;;273.20;138.25;;;;;;;-1.61;65.06;93997.84;1706354;82;22317;-56
2021/12/28 08:07:10;;;;;;;232.37;127.02;;;;;;;-1.28;64.95;93985.23;1754737;79;25943;-55
2021/12/28 08:09:39;;;;;;;176.80;98.30;;;;;;;-1.05;64.48;93990.36;1743523;81;21010;-54
2021/12/28 08:12:08;;;;;;;210.32;113.77;;;;;;;-0.81;63.95;93992.17;1745455;80;21857;-56
2021/12/28 08:14:35;;;;;;;199.55;109.87;;;;;;;-0.60;63.52;93988.59;1718785;80;22237;-55
2021/12/28 08:17:07;;;;;;;174.35;94.60;;;;;;;-0.47;62.95;93989.66;1733172;82;21509;-57
2021/12/28 08:19:37;;;;;;;165.90;89.28;;;;;;;-0.36;62.53;93991.72;1711788;81;20950;-56
2021/12/28 08:22:05;;;;;;;131.20;74.75;;;;;;;-0.28;62.28;93989.14;1686474;82;20911;-59
2021/12/28 08:24:34;;;;;;;118.50;64.00;;;;;;;-0.24;61.82;93991.26;1705112;82;21256;-56
2021/12/28 08:27:01;;;;;;;108.22;60.40;;;;;;;-0.22;61.55;93987.58;1665235;84;21035;-51
2021/12/28 08:29:28;;;;;;;102.35;57.45;;;;;;;-0.26;61.53;93990.29;1659160;85;22306;-55
2021/12/28 08:32:01;;;;;;;290.85;122.37;;;;;;;-0.29;61.36;93988.95;1686706;83;21053;-56
2021/12/28 08:34:31;;;;;;;113.60;58.55;;;;;;;-0.29;61.21;93987.61;1670061;85;21065;-57
2021/12/28 08:36:59;;;;;;;88.35;49.05;;;;;;;-0.15;61.03;93985.59;1668823;83;21431;-56
2021/12/28 08:39:27;;;;;;;80.67;46.98;;;;;;;-0.12;60.90;93986.71;1670753;83;21533;-59
2021/12/28 08:41:55;;;;;;;59.45;37.28;;;;;;;-0.04;60.59;93994.97;1692767;83;21702;-55
2021/12/28 08:44:22;;;;;;;124.40;54.15;;;;;;;-0.02;60.56;93993.98;1691725;82;21098;-58
2021/12/28 08:46:55;;;;;;;74.80;40.08;;;;;;;0.09;60.09;93990.02;1692072;82;20985;-58
2021/12/28 08:49:24;;;;;;;51.02;30.17;;;;;;;0.14;59.95;93986.87;1696807;82;21112;-52
2021/12/28 08:51:55;;;;;;;57.43;34.33;;;;;;;0.18;59.46;93981.63;1666916;84;21115;-52
2021/12/28 08:54:25;;;;;;;91.22;46.77;;;;;;;0.22;59.38;93987.02;1693377;82;21068;-56
2021/12/28 08:56:54;;;;;;;66.95;38.00;;;;;;;0.32;59.01;93990.98;1683749;82;21507;-55
2021/12/28 08:59:21;;;;;;;55.17;30.62;;;;;;;0.41;58.46;93991.27;1691150;82;21058;-54
2021/12/28 09:01:48;;;;;;;50.73;29.65;;;;;;;0.39;58.32;93993.61;1697377;83;22240;-53
2021/12/28 09:04:21;;;;;;;59.40;35.45;;;;;;;0.38;57.80;93990.72;1675581;83;21070;-57
2021/12/28 09:06:50;;;;;;;55.65;31.97;;;;;;;0.28;58.00;93990.25;1692181;82;21583;-59
2021/12/28 09:09:17;;;;;;;55.48;33.00;;;;;;;0.35;58.04;93990.17;1686484;82;21101;-57
2021/12/28 09:11:48;;;;;;;48.15;30.40;;;;;;;0.42;57.92;93986.64;1663474;83;20998;-55
2021/12/28 09:14:14;;;;;;;52.35;31.75;;;;;;;0.48;57.57;93988.52;1629849;86;21175;-58
2021/12/28 09:16:43;;;;;;;47.70;28.50;;;;;;;0.47;57.80;93984.27;1694763;83;21569;-56
2021/12/28 09:19:13;;;;;;;49.20;28.73;;;;;;;0.61;57.44;93992.22;1673368;82;21061;-56
2021/12/28 09:21:45;;;;;;;50.60;32.03;;;;;;;0.63;57.20;93987.77;1692043;82;21051;-53
2021/12/28 09:24:18;;;;;;;58.45;32.78;;;;;;;0.55;57.07;93987.67;1697610;82;21105;-56
2021/12/28 09:26:45;;;;;;;36.42;25.27;;;;;;;0.44;57.36;93987.00;1672385;83;21264;-54
2021/12/28 09:29:13;;;;;;;40.15;26.12;;;;;;;0.41;57.50;93982.40;1689536;82;21038;-55
2021/12/28 09:31:41;;;;;;;35.92;24.98;;;;;;;0.58;57.20;93984.91;1692661;83;21081;-58
2021/12/28 09:34:12;;;;;;;37.67;25.55;;;;;;;0.62;57.05;93980.23;1691755;82;21087;-56
2021/12/28 09:36:40;;;;;;;40.30;26.68;;;;;;;0.69;56.98;93978.82;1689352;83;21614;-62
2021/12/28 09:39:09;;;;;;;44.13;27.67;;;;;;;0.74;56.96;93979.72;1691463;83;21544;-58
2021/12/28 09:41:39;;;;;;;49.35;29.20;;;;;;;0.79;56.98;93979.27;1690635;83;22276;-59
2021/12/28 09:44:08;;;;;;;40.45;24.47;;;;;;;0.95;56.78;93973.31;1697137;83;21157;-58
2021/12/28 09:46:36;;;;;;;31.52;22.05;;;;;;;1.04;56.44;93968.94;1679083;83;21104;-54
2021/12/28 09:49:02;;;;;;;36.75;23.22;;;;;;;1.10;56.41;93973.33;1683526;82;21071;-56
2021/12/28 09:51:29;;;;;;;31.35;21.42;;;;;;;1.23;56.39;93966.95;1684277;83;21046;-57
2021/12/28 09:53:56;;;;;;;31.42;22.15;;;;;;;1.44;55.95;93962.61;1692388;82;21057;-55
2021/12/28 09:56:24;;;;;;;33.05;23.02;;;;;;;1.65;55.39;93967.72;1688753;82;21036;-59
2021/12/28 09:58:52;;;;;;;33.40;21.68;;;;;;;1.89;55.00;93966.58;1657266;83;21501;-53
2021/12/28 10:01:20;;;;;;;38.08;25.88;;;;;;;2.12;54.24;93976.12;1686240;82;21160;-53
2021/12/28 10:03:48;;;;;;;47.33;28.07;;;;;;;2.24;54.26;93969.52;1668699;83;21218;-58
2021/12/28 10:06:22;;;;;;;35.13;24.10;;;;;;;2.47;53.78;93967.39;1689803;83;20980;-54
2021/12/28 10:09:06;;;;;;;41.77;27.27;;;;;;;2.65;53.25;93962.41;1688748;83;21537;-53
2021/12/28 10:11:38;;;;;;;38.42;25.48;;;;;;;2.75;52.86;93961.44;1687164;83;21120;-53
2021/12/28 10:14:16;;;;;;;38.55;24.43;;;;;;;2.84;52.77;93960.31;1698898;83;21505;-56
2021/12/28 10:16:59;;;;;;;30.82;21.15;;;;;;;2.95;52.49;93961.64;1694660;82;21173;-55
2021/12/28 10:19:40;;;;;;;30.12;20.82;;;;;;;2.96;52.24;93958.31;1700306;83;21011;-56
2021/12/28 10:22:24;;;;;;;32.10;22.45;;;;;;;2.85;52.01;93960.48;1674858;83;21037;-56
2021/12/28 10:25:14;;;;;;;43.38;27.37;;;;;;;2.65;52.49;93951.55;1611344;85;21031;-55
2021/12/28 10:27:57;;;;;;;38.90;25.37;;;;;;;2.54;52.50;93959.11;1695116;82;21260;-58
2021/12/28 10:30:54;;;;;;;44.48;26.65;;;;;;;2.62;52.51;93953.14;1693852;83;22358;-57
2021/12/28 10:33:27;;;;;;;38.50;26.00;;;;;;;2.66;52.59;93944.94;1657646;83;21269;-60
2021/12/28 10:36:03;;;;;;;31.00;22.67;;;;;;;2.72;52.41;93948.09;1689084;82;21088;-58
2021/12/28 10:38:37;;;;;;;28.30;19.57;;;;;;;2.72;52.42;93940.55;1689213;83;21099;-52
2021/12/28 10:41:15;;;;;;;29.75;21.17;;;;;;;2.86;52.02;93938.93;1696411;83;21536;-57
2021/12/28 10:43:46;;;;;;;31.15;20.65;;;;;;;2.96;52.03;93929.79;1666602;82;22220;-53
2021/12/28 10:46:15;;;;;;;21.30;16.15;;;;;;;3.22;51.81;93929.64;1685536;82;20996;-56
2021/12/28 10:48:52;;;;;;;22.77;17.17;;;;;;;3.35;51.06;93931.11;1692844;82;21139;-54
2021/12/28 10:51:28;;;;;;;50.40;30.35;;;;;;;3.43;50.75;93924.35;1698733;83;21062;-53
2021/12/28 10:56:42;;;;;;;41.13;27.93;;;;;;;3.56;50.61;93919.97;1695140;83;22776;-57
2021/12/28 10:59:14;;;;;;;69.95;42.45;;;;;;;3.71;50.32;93919.05;1694990;82;21021;-56
2021/12/28 11:01:42;;;;;;;56.13;33.90;;;;;;;3.86;50.35;93921.01;1689158;83;21188;-54
2021/12/28 11:04:11;;;;;;;43.00;28.30;;;;;;;3.93;50.32;93920.86;1697423;82;21106;-55
2021/12/28 11:06:46;;;;;;;44.40;29.48;;;;;;;4.03;50.33;93921.19;1701357;83;21018;-56
2021/12/28 11:09:23;;;;;;;37.00;24.92;;;;;;;4.09;49.83;93914.64;1694854;83;21810;-57
2021/12/28 11:11:53;;;;;;;34.73;23.62;;;;;;;3.90;50.00;93913.52;1691662;83;21050;-54
2021/12/28 11:14:23;;;;;;;31.30;20.57;;;;;;;3.61;50.07;93911.30;1696153;83;21073;-53
2021/12/28 11:16:59;;;;;;;33.50;23.00;;;;;;;3.26;50.60;93920.81;1693417;83;21103;-54
2021/12/28 11:19:35;;;;;;;34.78;24.20;;;;;;;3.08;51.04;93924.48;1689507;83;21036;-55
2021/12/28 11:22:11;;;;;;;35.65;23.73;;;;;;;3.00;51.23;93919.03;1697491;83;21326;-56
2021/12/28 11:24:43;;;;;;;34.43;22.20;;;;;;;2.93;51.51;93918.41;1685213;83;21014;-56
2021/12/28 11:27:21;;;;;;;31.60;21.40;;;;;;;2.91;51.75;93916.70;1685346;83;21063;-54
2021/12/28 11:29:49;;;;;;;53.02;31.77;;;;;;;2.81;51.81;93910.87;1639397;85;21524;-56
2021/12/28 11:32:20;;;;;;;62.80;34.53;;;;;;;2.70;52.20;93915.77;1685608;84;20983;-57